sensor_id;sensor_type;location;lat;lon;timestamp;P1;durP1;ratioP1;P2;durP2;ratioP2
65996;SDS011;52765;52.258;21.052;2022-09-09T00:00:22;10.82;;;5.20;;
65996;SDS011;52765;52.258;21.052;2022-09-09T00:03:02;14.93;;;5.85;;
65996;SDS011;52765;52.258;21.052;2022-09-09T00:08:15;13.65;;;5.95;;
65996;SDS011;52765;52.258;21.052;2022-09-09T00:10:45;13.88;;;5.03;;
65996;SDS011;52765;52.258;21.052;2022-09-09T00:13:22;11.35;;;5.35;;
65996;SDS011;52765;52.258;21.052;2022-09-09T00:21:23;11.40;;;5.70;;
65996;SDS011;52765;52.258;21.052;2022-09-09T00:24:04;12.00;;;5.95;;
65996;SDS011;52765;52.258;21.052;2022-09-09T00:29:19;8.57;;;5.00;;
65996;SDS011;52765;52.258;21.052;2022-09-09T00:31:48;12.77;;;5.75;;
65996;SDS011;52765;52.258;21.052;2022-09-09T00:34:21;11.35;;;5.63;;
65996;SDS011;52765;52.258;21.052;2022-09-09T00:36:50;12.00;;;5.60;;
65996;SDS011;52765;52.258;21.052;2022-09-09T00:39:31;10.80;;;5.82;;
65996;SDS011;52765;52.258;21.052;2022-09-09T00:42:05;11.30;;;5.30;;
65996;SDS011;52765;52.258;21.052;2022-09-09T00:44:51;13.15;;;6.07;;
65996;SDS011;52765;52.258;21.052;2022-09-09T00:50:48;13.60;;;5.90;;
65996;SDS011;52765;52.258;21.052;2022-09-09T00:56:28;12.10;;;5.43;;
65996;SDS011;52765;52.258;21.052;2022-09-09T01:01:45;13.23;;;6.15;;
65996;SDS011;52765;52.258;21.052;2022-09-09T01:04:16;14.15;;;5.80;;
65996;SDS011;52765;52.258;21.052;2022-09-09T01:06:50;10.95;;;6.07;;
65996;SDS011;52765;52.258;21.052;2022-09-09T01:09:29;12.75;;;6.15;;
65996;SDS011;52765;52.258;21.052;2022-09-09T01:12:23;13.57;;;5.65;;
65996;SDS011;52765;52.258;21.052;2022-09-09T01:15:10;10.45;;;6.05;;
65996;SDS011;52765;52.258;21.052;2022-09-09T01:17:58;13.18;;;6.00;;
65996;SDS011;52765;52.258;21.052;2022-09-09T01:20:31;11.93;;;5.28;;
65996;SDS011;52765;52.258;21.052;2022-09-09T01:23:39;11.35;;;5.82;;
65996;SDS011;52765;52.258;21.052;2022-09-09T01:26:50;11.05;;;5.78;;
65996;SDS011;52765;52.258;21.052;2022-09-09T01:29:19;11.40;;;5.32;;
65996;SDS011;52765;52.258;21.052;2022-09-09T01:31:57;14.48;;;6.30;;
65996;SDS011;52765;52.258;21.052;2022-09-09T01:34:45;14.18;;;6.35;;
65996;SDS011;52765;52.258;21.052;2022-09-09T01:37:11;15.90;;;6.55;;
65996;SDS011;52765;52.258;21.052;2022-09-09T01:39:39;11.45;;;5.68;;
65996;SDS011;52765;52.258;21.052;2022-09-09T01:42:08;12.65;;;6.47;;
65996;SDS011;52765;52.258;21.052;2022-09-09T01:44:35;12.88;;;5.93;;
65996;SDS011;52765;52.258;21.052;2022-09-09T01:47:02;12.38;;;6.22;;
65996;SDS011;52765;52.258;21.052;2022-09-09T01:49:28;13.98;;;6.93;;
65996;SDS011;52765;52.258;21.052;2022-09-09T01:51:54;12.52;;;5.75;;
65996;SDS011;52765;52.258;21.052;2022-09-09T01:54:21;13.63;;;7.05;;
65996;SDS011;52765;52.258;21.052;2022-09-09T01:59:45;12.73;;;6.18;;
65996;SDS011;52765;52.258;21.052;2022-09-09T02:02:19;14.57;;;6.53;;
65996;SDS011;52765;52.258;21.052;2022-09-09T02:04:52;13.15;;;6.38;;
65996;SDS011;52765;52.258;21.052;2022-09-09T02:07:28;11.30;;;6.18;;
65996;SDS011;52765;52.258;21.052;2022-09-09T02:10:24;10.43;;;5.95;;
65996;SDS011;52765;52.258;21.052;2022-09-09T02:12:55;14.52;;;6.47;;
65996;SDS011;52765;52.258;21.052;2022-09-09T02:18:29;14.23;;;7.55;;
65996;SDS011;52765;52.258;21.052;2022-09-09T02:21:01;15.13;;;7.00;;
65996;SDS011;52765;52.258;21.052;2022-09-09T02:23:28;12.10;;;6.22;;
65996;SDS011;52765;52.258;21.052;2022-09-09T02:25:55;11.27;;;6.15;;
65996;SDS011;52765;52.258;21.052;2022-09-09T02:28:23;14.15;;;6.95;;
65996;SDS011;52765;52.258;21.052;2022-09-09T02:30:51;13.57;;;7.25;;
65996;SDS011;52765;52.258;21.052;2022-09-09T02:33:22;12.85;;;6.55;;
65996;SDS011;52765;52.258;21.052;2022-09-09T02:35:54;11.20;;;6.68;;
65996;SDS011;52765;52.258;21.052;2022-09-09T02:38:28;13.23;;;6.97;;
65996;SDS011;52765;52.258;21.052;2022-09-09T02:40:57;13.13;;;7.25;;
65996;SDS011;52765;52.258;21.052;2022-09-09T02:43:23;15.23;;;7.28;;
65996;SDS011;52765;52.258;21.052;2022-09-09T02:52:12;13.95;;;7.28;;
65996;SDS011;52765;52.258;21.052;2022-09-09T02:57:30;13.05;;;7.10;;
65996;SDS011;52765;52.258;21.052;2022-09-09T02:59:57;13.75;;;7.80;;
65996;SDS011;52765;52.258;21.052;2022-09-09T03:02:24;18.65;;;8.10;;
65996;SDS011;52765;52.258;21.052;2022-09-09T03:04:50;18.17;;;7.93;;
65996;SDS011;52765;52.258;21.052;2022-09-09T03:07:19;14.52;;;8.30;;
65996;SDS011;52765;52.258;21.052;2022-09-09T03:09:45;16.30;;;8.10;;
65996;SDS011;52765;52.258;21.052;2022-09-09T03:12:11;15.95;;;8.55;;
65996;SDS011;52765;52.258;21.052;2022-09-09T03:14:37;16.45;;;7.80;;
65996;SDS011;52765;52.258;21.052;2022-09-09T03:17:04;17.50;;;8.95;;
65996;SDS011;52765;52.258;21.052;2022-09-09T03:19:30;15.70;;;8.35;;
65996;SDS011;52765;52.258;21.052;2022-09-09T03:21:56;14.48;;;7.90;;
65996;SDS011;52765;52.258;21.052;2022-09-09T03:24:25;17.15;;;8.38;;
65996;SDS011;52765;52.258;21.052;2022-09-09T03:26:51;13.93;;;7.70;;
65996;SDS011;52765;52.258;21.052;2022-09-09T03:29:16;15.90;;;7.40;;
65996;SDS011;52765;52.258;21.052;2022-09-09T03:31:43;13.07;;;7.40;;
65996;SDS011;52765;52.258;21.052;2022-09-09T03:34:09;12.45;;;7.50;;
65996;SDS011;52765;52.258;21.052;2022-09-09T03:36:35;12.30;;;7.15;;
65996;SDS011;52765;52.258;21.052;2022-09-09T03:39:01;13.98;;;7.30;;
65996;SDS011;52765;52.258;21.052;2022-09-09T03:41:28;15.30;;;7.53;;
65996;SDS011;52765;52.258;21.052;2022-09-09T03:43:54;12.43;;;7.05;;
65996;SDS011;52765;52.258;21.052;2022-09-09T03:46:20;13.23;;;6.90;;
65996;SDS011;52765;52.258;21.052;2022-09-09T03:48:47;13.10;;;6.70;;
65996;SDS011;52765;52.258;21.052;2022-09-09T03:51:13;14.00;;;7.00;;
65996;SDS011;52765;52.258;21.052;2022-09-09T03:53:38;19.85;;;10.43;;
65996;SDS011;52765;52.258;21.052;2022-09-09T03:56:05;14.35;;;7.90;;
65996;SDS011;52765;52.258;21.052;2022-09-09T03:58:34;13.07;;;6.85;;
65996;SDS011;52765;52.258;21.052;2022-09-09T04:03:34;12.45;;;6.32;;
65996;SDS011;52765;52.258;21.052;2022-09-09T04:06:02;11.68;;;6.30;;
65996;SDS011;52765;52.258;21.052;2022-09-09T04:08:29;12.73;;;6.18;;
65996;SDS011;52765;52.258;21.052;2022-09-09T04:10:58;10.27;;;6.03;;
65996;SDS011;52765;52.258;21.052;2022-09-09T04:13:27;13.23;;;6.55;;
65996;SDS011;52765;52.258;21.052;2022-09-09T04:15:54;10.45;;;5.75;;
65996;SDS011;52765;52.258;21.052;2022-09-09T04:18:21;9.07;;;5.22;;
65996;SDS011;52765;52.258;21.052;2022-09-09T04:20:48;11.75;;;5.30;;
65996;SDS011;52765;52.258;21.052;2022-09-09T04:23:15;10.00;;;5.85;;
65996;SDS011;52765;52.258;21.052;2022-09-09T04:25:48;8.70;;;5.63;;
65996;SDS011;52765;52.258;21.052;2022-09-09T04:28:15;9.50;;;5.03;;
65996;SDS011;52765;52.258;21.052;2022-09-09T04:30:42;9.40;;;4.90;;
65996;SDS011;52765;52.258;21.052;2022-09-09T04:33:11;10.60;;;5.25;;
65996;SDS011;52765;52.258;21.052;2022-09-09T04:35:37;9.48;;;5.05;;
65996;SDS011;52765;52.258;21.052;2022-09-09T04:38:09;10.02;;;5.80;;
65996;SDS011;52765;52.258;21.052;2022-09-09T04:40:37;10.50;;;5.75;;
65996;SDS011;52765;52.258;21.052;2022-09-09T04:43:08;10.10;;;5.47;;
65996;SDS011;52765;52.258;21.052;2022-09-09T04:45:34;7.65;;;5.18;;
65996;SDS011;52765;52.258;21.052;2022-09-09T04:48:00;7.40;;;5.03;;
65996;SDS011;52765;52.258;21.052;2022-09-09T04:50:26;10.52;;;5.45;;
65996;SDS011;52765;52.258;21.052;2022-09-09T04:52:51;11.43;;;6.45;;
65996;SDS011;52765;52.258;21.052;2022-09-09T04:55:17;9.73;;;5.55;;
65996;SDS011;52765;52.258;21.052;2022-09-09T04:57:42;9.90;;;5.65;;
65996;SDS011;52765;52.258;21.052;2022-09-09T05:00:11;12.60;;;6.05;;
65996;SDS011;52765;52.258;21.052;2022-09-09T05:02:38;9.82;;;5.70;;
65996;SDS011;52765;52.258;21.052;2022-09-09T05:05:04;7.90;;;5.13;;
65996;SDS011;52765;52.258;21.052;2022-09-09T05:07:30;8.75;;;4.88;;
65996;SDS011;52765;52.258;21.052;2022-09-09T05:09:56;10.98;;;5.60;;
65996;SDS011;52765;52.258;21.052;2022-09-09T05:12:22;8.50;;;4.68;;
65996;SDS011;52765;52.258;21.052;2022-09-09T05:14:50;9.90;;;5.05;;
65996;SDS011;52765;52.258;21.052;2022-09-09T05:17:16;9.25;;;4.82;;
65996;SDS011;52765;52.258;21.052;2022-09-09T05:19:42;8.18;;;5.30;;
65996;SDS011;52765;52.258;21.052;2022-09-09T05:22:09;11.18;;;4.95;;
65996;SDS011;52765;52.258;21.052;2022-09-09T05:24:36;8.15;;;4.70;;
65996;SDS011;52765;52.258;21.052;2022-09-09T05:27:05;6.10;;;4.40;;
65996;SDS011;52765;52.258;21.052;2022-09-09T05:29:31;7.20;;;5.30;;
65996;SDS011;52765;52.258;21.052;2022-09-09T05:31:58;7.70;;;5.13;;
65996;SDS011;52765;52.258;21.052;2022-09-09T05:34:24;11.25;;;4.90;;
65996;SDS011;52765;52.258;21.052;2022-09-09T05:36:50;6.95;;;4.18;;
65996;SDS011;52765;52.258;21.052;2022-09-09T05:39:17;7.97;;;4.15;;
65996;SDS011;52765;52.258;21.052;2022-09-09T05:41:42;8.27;;;4.95;;
65996;SDS011;52765;52.258;21.052;2022-09-09T05:44:08;8.35;;;5.03;;
65996;SDS011;52765;52.258;21.052;2022-09-09T05:46:33;7.88;;;4.35;;
65996;SDS011;52765;52.258;21.052;2022-09-09T05:48:59;7.63;;;4.60;;
65996;SDS011;52765;52.258;21.052;2022-09-09T05:51:27;6.90;;;4.50;;
65996;SDS011;52765;52.258;21.052;2022-09-09T05:53:57;6.85;;;4.28;;
65996;SDS011;52765;52.258;21.052;2022-09-09T05:56:27;8.50;;;4.78;;
65996;SDS011;52765;52.258;21.052;2022-09-09T05:58:54;8.45;;;5.07;;
65996;SDS011;52765;52.258;21.052;2022-09-09T06:01:24;6.88;;;4.40;;
65996;SDS011;52765;52.258;21.052;2022-09-09T06:03:51;10.07;;;4.90;;
65996;SDS011;52765;52.258;21.052;2022-09-09T06:06:21;8.40;;;4.80;;
65996;SDS011;52765;52.258;21.052;2022-09-09T06:08:58;9.20;;;4.63;;
65996;SDS011;52765;52.258;21.052;2022-09-09T06:11:26;7.68;;;4.30;;
65996;SDS011;52765;52.258;21.052;2022-09-09T06:13:57;7.80;;;4.70;;
65996;SDS011;52765;52.258;21.052;2022-09-09T06:16:23;5.93;;;4.30;;
65996;SDS011;52765;52.258;21.052;2022-09-09T06:18:51;7.80;;;4.38;;
65996;SDS011;52765;52.258;21.052;2022-09-09T06:23:47;7.22;;;5.18;;
65996;SDS011;52765;52.258;21.052;2022-09-09T06:26:17;7.75;;;4.78;;
65996;SDS011;52765;52.258;21.052;2022-09-09T06:28:44;11.20;;;4.70;;
65996;SDS011;52765;52.258;21.052;2022-09-09T06:31:13;9.73;;;4.20;;
65996;SDS011;52765;52.258;21.052;2022-09-09T06:33:42;6.60;;;4.88;;
65996;SDS011;52765;52.258;21.052;2022-09-09T06:36:12;10.48;;;6.00;;
65996;SDS011;52765;52.258;21.052;2022-09-09T06:38:40;7.80;;;4.75;;
65996;SDS011;52765;52.258;21.052;2022-09-09T06:41:07;6.18;;;4.25;;
65996;SDS011;52765;52.258;21.052;2022-09-09T06:43:34;7.80;;;4.90;;
65996;SDS011;52765;52.258;21.052;2022-09-09T06:46:08;9.38;;;4.90;;
65996;SDS011;52765;52.258;21.052;2022-09-09T06:48:35;6.75;;;4.88;;
65996;SDS011;52765;52.258;21.052;2022-09-09T06:51:18;10.10;;;5.53;;
65996;SDS011;52765;52.258;21.052;2022-09-09T06:53:51;8.48;;;5.43;;
65996;SDS011;52765;52.258;21.052;2022-09-09T06:58:48;8.10;;;5.68;;
65996;SDS011;52765;52.258;21.052;2022-09-09T07:01:16;9.50;;;5.50;;
65996;SDS011;52765;52.258;21.052;2022-09-09T07:03:44;7.38;;;5.53;;
65996;SDS011;52765;52.258;21.052;2022-09-09T07:06:15;9.65;;;5.65;;
65996;SDS011;52765;52.258;21.052;2022-09-09T07:08:50;9.73;;;5.88;;
65996;SDS011;52765;52.258;21.052;2022-09-09T07:11:18;8.35;;;5.78;;
65996;SDS011;52765;52.258;21.052;2022-09-09T07:13:46;9.32;;;5.60;;
65996;SDS011;52765;52.258;21.052;2022-09-09T07:16:14;8.40;;;5.25;;
65996;SDS011;52765;52.258;21.052;2022-09-09T07:18:42;10.57;;;5.82;;
65996;SDS011;52765;52.258;21.052;2022-09-09T07:21:11;14.27;;;6.55;;
65996;SDS011;52765;52.258;21.052;2022-09-09T07:23:41;11.82;;;6.47;;
65996;SDS011;52765;52.258;21.052;2022-09-09T07:26:10;11.63;;;6.20;;
65996;SDS011;52765;52.258;21.052;2022-09-09T07:28:41;9.48;;;6.35;;
65996;SDS011;52765;52.258;21.052;2022-09-09T07:31:08;8.82;;;6.10;;
65996;SDS011;52765;52.258;21.052;2022-09-09T07:33:42;9.50;;;5.90;;
65996;SDS011;52765;52.258;21.052;2022-09-09T07:36:11;12.15;;;6.10;;
65996;SDS011;52765;52.258;21.052;2022-09-09T07:38:41;14.82;;;6.60;;
65996;SDS011;52765;52.258;21.052;2022-09-09T07:41:15;14.82;;;7.05;;
65996;SDS011;52765;52.258;21.052;2022-09-09T07:43:43;10.88;;;6.70;;
65996;SDS011;52765;52.258;21.052;2022-09-09T07:46:11;11.00;;;6.82;;
65996;SDS011;52765;52.258;21.052;2022-09-09T07:48:38;18.48;;;13.23;;
65996;SDS011;52765;52.258;21.052;2022-09-09T07:51:09;13.63;;;9.20;;
65996;SDS011;52765;52.258;21.052;2022-09-09T07:53:40;11.45;;;8.07;;
65996;SDS011;52765;52.258;21.052;2022-09-09T07:56:06;12.10;;;7.47;;
65996;SDS011;52765;52.258;21.052;2022-09-09T07:58:34;10.90;;;7.20;;
65996;SDS011;52765;52.258;21.052;2022-09-09T08:01:09;12.93;;;7.25;;
65996;SDS011;52765;52.258;21.052;2022-09-09T08:03:37;10.90;;;6.82;;
65996;SDS011;52765;52.258;21.052;2022-09-09T08:06:03;14.30;;;7.72;;
65996;SDS011;52765;52.258;21.052;2022-09-09T08:08:31;11.98;;;7.43;;
65996;SDS011;52765;52.258;21.052;2022-09-09T08:11:03;13.18;;;8.52;;
65996;SDS011;52765;52.258;21.052;2022-09-09T08:13:35;11.35;;;7.25;;
65996;SDS011;52765;52.258;21.052;2022-09-09T08:16:11;13.88;;;7.82;;
65996;SDS011;52765;52.258;21.052;2022-09-09T08:18:39;14.85;;;7.93;;
65996;SDS011;52765;52.258;21.052;2022-09-09T08:21:08;13.15;;;7.93;;
65996;SDS011;52765;52.258;21.052;2022-09-09T08:23:37;13.88;;;7.43;;
65996;SDS011;52765;52.258;21.052;2022-09-09T08:26:07;12.63;;;7.75;;
65996;SDS011;52765;52.258;21.052;2022-09-09T08:28:40;13.68;;;7.93;;
65996;SDS011;52765;52.258;21.052;2022-09-09T08:33:40;18.92;;;9.27;;
65996;SDS011;52765;52.258;21.052;2022-09-09T08:36:06;13.07;;;7.43;;
65996;SDS011;52765;52.258;21.052;2022-09-09T08:38:35;17.33;;;8.07;;
65996;SDS011;52765;52.258;21.052;2022-09-09T08:41:18;14.63;;;8.00;;
65996;SDS011;52765;52.258;21.052;2022-09-09T08:49:39;14.10;;;7.65;;
65996;SDS011;52765;52.258;21.052;2022-09-09T08:52:32;15.25;;;7.60;;
65996;SDS011;52765;52.258;21.052;2022-09-09T08:55:05;14.97;;;8.20;;
65996;SDS011;52765;52.258;21.052;2022-09-09T08:57:52;10.82;;;7.50;;
65996;SDS011;52765;52.258;21.052;2022-09-09T09:00:21;16.95;;;8.05;;
65996;SDS011;52765;52.258;21.052;2022-09-09T09:05:56;15.88;;;8.15;;
65996;SDS011;52765;52.258;21.052;2022-09-09T09:11:35;11.68;;;8.30;;
65996;SDS011;52765;52.258;21.052;2022-09-09T09:14:08;13.63;;;8.70;;
65996;SDS011;52765;52.258;21.052;2022-09-09T09:19:28;18.73;;;9.60;;
65996;SDS011;52765;52.258;21.052;2022-09-09T09:22:04;13.95;;;8.88;;
65996;SDS011;52765;52.258;21.052;2022-09-09T09:24:51;15.35;;;9.60;;
65996;SDS011;52765;52.258;21.052;2022-09-09T09:27:31;19.38;;;9.57;;
65996;SDS011;52765;52.258;21.052;2022-09-09T09:29:56;18.60;;;9.85;;
65996;SDS011;52765;52.258;21.052;2022-09-09T09:32:24;18.52;;;9.88;;
65996;SDS011;52765;52.258;21.052;2022-09-09T09:34:54;15.27;;;9.52;;
65996;SDS011;52765;52.258;21.052;2022-09-09T09:37:29;17.80;;;10.48;;
65996;SDS011;52765;52.258;21.052;2022-09-09T09:40:07;20.05;;;10.55;;
65996;SDS011;52765;52.258;21.052;2022-09-09T09:42:37;18.23;;;9.98;;
65996;SDS011;52765;52.258;21.052;2022-09-09T09:48:03;20.95;;;10.77;;
65996;SDS011;52765;52.258;21.052;2022-09-09T09:52:57;17.73;;;10.18;;
65996;SDS011;52765;52.258;21.052;2022-09-09T09:55:32;21.20;;;10.70;;
65996;SDS011;52765;52.258;21.052;2022-09-09T09:58:04;16.80;;;9.77;;
65996;SDS011;52765;52.258;21.052;2022-09-09T10:00:31;18.30;;;9.05;;
65996;SDS011;52765;52.258;21.052;2022-09-09T10:02:59;19.48;;;10.25;;
65996;SDS011;52765;52.258;21.052;2022-09-09T10:05:26;18.15;;;11.07;;
65996;SDS011;52765;52.258;21.052;2022-09-09T10:08:27;17.40;;;10.70;;
65996;SDS011;52765;52.258;21.052;2022-09-09T10:22:39;17.40;;;9.68;;
65996;SDS011;52765;52.258;21.052;2022-09-09T10:36:21;23.13;;;12.82;;
65996;SDS011;52765;52.258;21.052;2022-09-09T10:38:58;19.42;;;12.23;;
65996;SDS011;52765;52.258;21.052;2022-09-09T10:41:39;22.73;;;11.90;;
65996;SDS011;52765;52.258;21.052;2022-09-09T10:54:59;26.73;;;14.30;;
65996;SDS011;52765;52.258;21.052;2022-09-09T10:57:41;21.45;;;13.40;;
65996;SDS011;52765;52.258;21.052;2022-09-09T11:03:00;27.63;;;14.80;;
65996;SDS011;52765;52.258;21.052;2022-09-09T11:05:40;24.23;;;13.88;;
65996;SDS011;52765;52.258;21.052;2022-09-09T11:08:10;28.92;;;15.57;;
65996;SDS011;52765;52.258;21.052;2022-09-09T11:16:16;27.90;;;15.23;;
65996;SDS011;52765;52.258;21.052;2022-09-09T11:19:11;28.73;;;14.23;;
65996;SDS011;52765;52.258;21.052;2022-09-09T11:21:47;27.10;;;15.10;;
65996;SDS011;52765;52.258;21.052;2022-09-09T11:27:15;25.88;;;14.80;;
65996;SDS011;52765;52.258;21.052;2022-09-09T11:30:02;29.52;;;16.15;;
65996;SDS011;52765;52.258;21.052;2022-09-09T11:38:45;25.38;;;13.98;;
65996;SDS011;52765;52.258;21.052;2022-09-09T11:41:15;23.17;;;15.13;;
65996;SDS011;52765;52.258;21.052;2022-09-09T11:43:42;29.67;;;14.73;;
65996;SDS011;52765;52.258;21.052;2022-09-09T11:46:11;29.45;;;16.90;;
65996;SDS011;52765;52.258;21.052;2022-09-09T11:48:41;31.88;;;18.15;;
65996;SDS011;52765;52.258;21.052;2022-09-09T11:51:11;31.98;;;16.92;;
65996;SDS011;52765;52.258;21.052;2022-09-09T11:56:32;27.35;;;16.05;;
65996;SDS011;52765;52.258;21.052;2022-09-09T12:04:28;37.20;;;17.70;;
65996;SDS011;52765;52.258;21.052;2022-09-09T12:07:03;30.98;;;16.55;;
65996;SDS011;52765;52.258;21.052;2022-09-09T12:17:36;28.70;;;16.73;;
65996;SDS011;52765;52.258;21.052;2022-09-09T12:20:21;25.08;;;15.23;;
65996;SDS011;52765;52.258;21.052;2022-09-09T12:31:10;35.10;;;18.60;;
65996;SDS011;52765;52.258;21.052;2022-09-09T12:34:02;35.60;;;19.27;;
65996;SDS011;52765;52.258;21.052;2022-09-09T12:36:34;36.28;;;20.10;;
65996;SDS011;52765;52.258;21.052;2022-09-09T12:39:09;39.45;;;20.75;;
65996;SDS011;52765;52.258;21.052;2022-09-09T12:41:52;33.00;;;18.33;;
65996;SDS011;52765;52.258;21.052;2022-09-09T12:44:29;34.13;;;18.92;;
65996;SDS011;52765;52.258;21.052;2022-09-09T12:46:55;34.97;;;18.63;;
65996;SDS011;52765;52.258;21.052;2022-09-09T12:51:59;40.85;;;19.45;;
65996;SDS011;52765;52.258;21.052;2022-09-09T12:54:28;33.65;;;18.13;;
65996;SDS011;52765;52.258;21.052;2022-09-09T12:56:54;35.08;;;17.25;;
65996;SDS011;52765;52.258;21.052;2022-09-09T13:01:59;35.03;;;18.98;;
65996;SDS011;52765;52.258;21.052;2022-09-09T13:04:25;41.72;;;18.30;;
65996;SDS011;52765;52.258;21.052;2022-09-09T13:06:50;43.33;;;19.42;;
65996;SDS011;52765;52.258;21.052;2022-09-09T13:09:17;39.50;;;19.20;;
65996;SDS011;52765;52.258;21.052;2022-09-09T13:11:45;38.03;;;17.17;;
65996;SDS011;52765;52.258;21.052;2022-09-09T13:14:27;36.80;;;18.20;;
65996;SDS011;52765;52.258;21.052;2022-09-09T13:17:00;34.65;;;18.02;;
65996;SDS011;52765;52.258;21.052;2022-09-09T13:19:29;40.30;;;18.75;;
65996;SDS011;52765;52.258;21.052;2022-09-09T13:22:00;38.80;;;17.40;;
65996;SDS011;52765;52.258;21.052;2022-09-09T13:24:44;37.80;;;18.85;;
65996;SDS011;52765;52.258;21.052;2022-09-09T13:27:22;36.45;;;18.38;;
65996;SDS011;52765;52.258;21.052;2022-09-09T13:29:53;37.08;;;18.23;;
65996;SDS011;52765;52.258;21.052;2022-09-09T13:32:20;37.28;;;17.45;;
65996;SDS011;52765;52.258;21.052;2022-09-09T13:35:22;37.50;;;17.60;;
65996;SDS011;52765;52.258;21.052;2022-09-09T13:37:47;36.53;;;17.63;;
65996;SDS011;52765;52.258;21.052;2022-09-09T13:40:17;32.15;;;16.40;;
65996;SDS011;52765;52.258;21.052;2022-09-09T13:42:44;44.28;;;18.63;;
65996;SDS011;52765;52.258;21.052;2022-09-09T13:45:17;37.15;;;18.50;;
65996;SDS011;52765;52.258;21.052;2022-09-09T13:47:47;38.63;;;18.85;;
65996;SDS011;52765;52.258;21.052;2022-09-09T13:50:27;39.22;;;17.80;;
65996;SDS011;52765;52.258;21.052;2022-09-09T13:52:54;33.90;;;17.48;;
65996;SDS011;52765;52.258;21.052;2022-09-09T13:55:23;45.38;;;18.05;;
65996;SDS011;52765;52.258;21.052;2022-09-09T13:57:54;36.65;;;16.92;;
65996;SDS011;52765;52.258;21.052;2022-09-09T14:00:25;37.33;;;17.52;;
65996;SDS011;52765;52.258;21.052;2022-09-09T14:02:55;40.60;;;18.05;;
65996;SDS011;52765;52.258;21.052;2022-09-09T14:05:21;32.35;;;16.75;;
65996;SDS011;52765;52.258;21.052;2022-09-09T14:07:47;38.25;;;18.25;;
65996;SDS011;52765;52.258;21.052;2022-09-09T14:10:14;41.55;;;20.40;;
65996;SDS011;52765;52.258;21.052;2022-09-09T14:12:40;33.28;;;15.57;;
65996;SDS011;52765;52.258;21.052;2022-09-09T14:15:06;30.48;;;16.15;;
65996;SDS011;52765;52.258;21.052;2022-09-09T14:17:34;33.78;;;17.00;;
65996;SDS011;52765;52.258;21.052;2022-09-09T14:20:02;33.20;;;16.13;;
65996;SDS011;52765;52.258;21.052;2022-09-09T14:22:30;36.50;;;17.35;;
65996;SDS011;52765;52.258;21.052;2022-09-09T14:24:56;38.75;;;18.75;;
65996;SDS011;52765;52.258;21.052;2022-09-09T14:27:22;34.33;;;16.60;;
65996;SDS011;52765;52.258;21.052;2022-09-09T14:29:48;33.67;;;17.13;;
65996;SDS011;52765;52.258;21.052;2022-09-09T14:32:13;35.53;;;16.75;;
65996;SDS011;52765;52.258;21.052;2022-09-09T14:34:39;40.10;;;17.33;;
65996;SDS011;52765;52.258;21.052;2022-09-09T14:37:05;35.28;;;17.48;;
65996;SDS011;52765;52.258;21.052;2022-09-09T14:39:31;36.58;;;18.13;;
65996;SDS011;52765;52.258;21.052;2022-09-09T14:41:56;31.42;;;16.25;;
65996;SDS011;52765;52.258;21.052;2022-09-09T14:44:23;35.97;;;16.65;;
65996;SDS011;52765;52.258;21.052;2022-09-09T14:46:48;35.47;;;17.00;;
65996;SDS011;52765;52.258;21.052;2022-09-09T14:49:18;33.88;;;17.35;;
65996;SDS011;52765;52.258;21.052;2022-09-09T14:51:43;35.63;;;17.35;;
65996;SDS011;52765;52.258;21.052;2022-09-09T14:54:09;38.78;;;17.83;;
65996;SDS011;52765;52.258;21.052;2022-09-09T14:56:35;36.83;;;18.38;;
65996;SDS011;52765;52.258;21.052;2022-09-09T14:59:01;36.67;;;17.80;;
65996;SDS011;52765;52.258;21.052;2022-09-09T15:01:30;39.75;;;18.02;;
65996;SDS011;52765;52.258;21.052;2022-09-09T15:03:58;38.33;;;18.08;;
65996;SDS011;52765;52.258;21.052;2022-09-09T15:06:25;37.70;;;17.48;;
65996;SDS011;52765;52.258;21.052;2022-09-09T15:08:55;35.05;;;17.08;;
65996;SDS011;52765;52.258;21.052;2022-09-09T15:11:22;40.53;;;18.65;;
65996;SDS011;52765;52.258;21.052;2022-09-09T15:13:51;42.92;;;18.20;;
65996;SDS011;52765;52.258;21.052;2022-09-09T15:16:18;37.00;;;17.65;;
65996;SDS011;52765;52.258;21.052;2022-09-09T15:18:45;42.47;;;18.58;;
65996;SDS011;52765;52.258;21.052;2022-09-09T15:21:12;40.90;;;18.75;;
65996;SDS011;52765;52.258;21.052;2022-09-09T15:23:40;37.45;;;18.73;;
65996;SDS011;52765;52.258;21.052;2022-09-09T15:26:06;36.85;;;17.15;;
65996;SDS011;52765;52.258;21.052;2022-09-09T15:28:34;43.65;;;20.60;;
65996;SDS011;52765;52.258;21.052;2022-09-09T15:31:04;41.30;;;18.60;;
65996;SDS011;52765;52.258;21.052;2022-09-09T15:33:39;37.42;;;18.65;;
65996;SDS011;52765;52.258;21.052;2022-09-09T15:36:14;34.72;;;18.08;;
65996;SDS011;52765;52.258;21.052;2022-09-09T15:38:50;44.28;;;17.77;;
65996;SDS011;52765;52.258;21.052;2022-09-09T15:41:17;35.33;;;18.05;;
65996;SDS011;52765;52.258;21.052;2022-09-09T15:43:47;36.47;;;18.13;;
65996;SDS011;52765;52.258;21.052;2022-09-09T15:49:36;41.22;;;18.77;;
65996;SDS011;52765;52.258;21.052;2022-09-09T15:51:50;36.05;;;18.40;;
65996;SDS011;52765;52.258;21.052;2022-09-09T15:54:18;33.50;;;17.33;;
65996;SDS011;52765;52.258;21.052;2022-09-09T15:56:49;34.95;;;18.48;;
65996;SDS011;52765;52.258;21.052;2022-09-09T15:59:19;38.42;;;18.15;;
65996;SDS011;52765;52.258;21.052;2022-09-09T16:01:45;34.50;;;18.13;;
65996;SDS011;52765;52.258;21.052;2022-09-09T16:04:11;36.08;;;17.92;;
65996;SDS011;52765;52.258;21.052;2022-09-09T16:06:39;32.88;;;17.40;;
65996;SDS011;52765;52.258;21.052;2022-09-09T16:09:08;35.22;;;17.80;;
65996;SDS011;52765;52.258;21.052;2022-09-09T16:11:36;32.47;;;17.50;;
65996;SDS011;52765;52.258;21.052;2022-09-09T16:14:05;33.28;;;17.10;;
65996;SDS011;52765;52.258;21.052;2022-09-09T16:16:31;35.33;;;17.55;;
65996;SDS011;52765;52.258;21.052;2022-09-09T16:19:02;30.95;;;16.02;;
65996;SDS011;52765;52.258;21.052;2022-09-09T16:21:34;37.42;;;17.27;;
65996;SDS011;52765;52.258;21.052;2022-09-09T16:24:03;31.83;;;16.90;;
65996;SDS011;52765;52.258;21.052;2022-09-09T16:26:30;30.55;;;15.88;;
65996;SDS011;52765;52.258;21.052;2022-09-09T16:28:56;27.55;;;15.48;;
65996;SDS011;52765;52.258;21.052;2022-09-09T16:31:24;34.55;;;16.48;;
65996;SDS011;52765;52.258;21.052;2022-09-09T16:33:51;33.42;;;16.73;;
65996;SDS011;52765;52.258;21.052;2022-09-09T16:36:18;36.47;;;16.33;;
65996;SDS011;52765;52.258;21.052;2022-09-09T16:38:45;31.35;;;16.15;;
65996;SDS011;52765;52.258;21.052;2022-09-09T16:41:11;30.77;;;16.50;;
65996;SDS011;52765;52.258;21.052;2022-09-09T16:43:39;32.35;;;16.90;;
65996;SDS011;52765;52.258;21.052;2022-09-09T16:46:15;34.83;;;17.17;;
65996;SDS011;52765;52.258;21.052;2022-09-09T16:48:43;29.48;;;16.00;;
65996;SDS011;52765;52.258;21.052;2022-09-09T16:51:17;31.90;;;17.45;;
65996;SDS011;52765;52.258;21.052;2022-09-09T16:53:48;31.63;;;16.30;;
65996;SDS011;52765;52.258;21.052;2022-09-09T16:56:17;31.15;;;16.30;;
65996;SDS011;52765;52.258;21.052;2022-09-09T16:58:55;30.92;;;15.75;;
65996;SDS011;52765;52.258;21.052;2022-09-09T17:01:22;32.45;;;16.15;;
65996;SDS011;52765;52.258;21.052;2022-09-09T17:04:00;33.00;;;15.35;;
65996;SDS011;52765;52.258;21.052;2022-09-09T17:06:28;28.92;;;15.88;;